Time;durP1;ratioP1;P1;durP2;ratioP2;P2;SDS_P1;SDS_P2;PMS_P1;PMS_P2;Temp;Humidity;BMP_temperature;BMP_pressure;BME280_temperature;BME280_humidity;BME280_pressure;Samples;Min_cycle;Max_cycle;Signal;HPM_P1;HPM_P2
2022/10/26 00:01:01;;;;;;;17.27;5.22;;;20.30;99.90;;;;;;5026077;28;20565;-74
2022/10/26 00:03:27;;;;;;;15.30;5.18;;;20.30;99.90;;;;;;5031135;28;20037;-73
2022/10/26 00:05:53;;;;;;;14.68;6.13;;;20.20;99.90;;;;;;5034964;28;20084;-73
2022/10/26 00:08:18;;;;;;;17.45;5.20;;;20.20;99.90;;;;;;5027300;28;20132;-74
2022/10/26 00:10:44;;;;;;;19.27;5.43;;;20.20;99.90;;;;;;5041293;28;20476;-75
2022/10/26 00:13:12;;;;;;;20.48;6.38;;;20.20;99.90;;;;;;5025688;28;20033;-72
2022/10/26 00:15:42;;;;;;;16.90;5.97;;;20.20;99.90;;;;;;5017417;28;20037;-73
2022/10/26 00:18:09;;;;;;;15.52;6.22;;;20.20;99.90;;;;;;5025690;28;20069;-73
2022/10/26 00:20:34;;;;;;;18.98;7.07;;;20.10;99.90;;;;;;5037576;28;20045;-73
2022/10/26 00:23:00;;;;;;;18.52;6.95;;;20.20;99.90;;;;;;5041827;28;20133;-74
2022/10/26 00:25:26;;;;;;;15.85;6.63;;;20.10;99.90;;;;;;5025311;28;20041;-75
2022/10/26 00:27:52;;;;;;;21.40;6.88;;;20.10;99.90;;;;;;5043020;28;20037;-74
2022/10/26 00:30:18;;;;;;;22.30;7.65;;;20.10;99.90;;;;;;5042219;28;20051;-73
2022/10/26 00:32:44;;;;;;;21.85;7.70;;;20.10;99.90;;;;;;5024107;28;20128;-72
2022/10/26 00:35:12;;;;;;;16.75;6.78;;;20.00;99.90;;;;;;5029124;28;20037;-73
2022/10/26 00:37:39;;;;;;;24.50;7.85;;;20.10;99.90;;;;;;5018091;28;20492;-73
2022/10/26 00:40:06;;;;;;;19.90;7.00;;;20.00;99.90;;;;;;5029976;28;20030;-73
2022/10/26 00:42:32;;;;;;;20.55;7.63;;;20.00;99.90;;;;;;5036511;28;20030;-73
2022/10/26 00:45:03;;;;;;;20.13;7.20;;;20.00;99.90;;;;;;5044072;28;20037;-73
2022/10/26 00:47:44;;;;;;;20.75;7.70;;;20.10;99.90;;;;;;5038584;28;20045;-73
2022/10/26 00:50:18;;;;;;;22.73;6.70;;;20.10;99.90;;;;;;5017884;28;20032;-73
2022/10/26 00:52:43;;;;;;;24.63;7.38;;;20.10;99.90;;;;;;5044136;28;20039;-73
2022/10/26 00:55:10;;;;;;;23.08;7.45;;;20.10;99.90;;;;;;5021069;28;20393;-73
2022/10/26 00:57:38;;;;;;;21.33;7.97;;;20.10;99.90;;;;;;5029121;28;20068;-73
2022/10/26 01:00:06;;;;;;;26.05;8.18;;;20.10;99.90;;;;;;5029691;28;20543;-72
2022/10/26 01:02:33;;;;;;;21.67;8.02;;;20.00;99.90;;;;;;5026849;28;20038;-73
2022/10/26 01:05:01;;;;;;;18.48;6.63;;;20.10;99.90;;;;;;5014753;28;20041;-74
2022/10/26 01:07:27;;;;;;;19.88;6.50;;;20.00;99.90;;;;;;5028674;28;20382;-73
2022/10/26 01:09:54;;;;;;;22.58;7.05;;;19.90;99.90;;;;;;5027482;28;20037;-73
2022/10/26 01:12:20;;;;;;;21.30;6.93;;;19.80;99.90;;;;;;5032778;28;20160;-74
2022/10/26 01:14:46;;;;;;;23.92;5.78;;;19.90;99.90;;;;;;5013904;28;20041;-72
2022/10/26 01:17:27;;;;;;;21.10;6.22;;;19.90;99.90;;;;;;5035533;28;20097;-73
2022/10/26 01:20:24;;;;;;;16.90;5.32;;;19.80;99.90;;;;;;5038193;28;20048;-72
2022/10/26 01:23:09;;;;;;;17.63;5.45;;;19.80;99.90;;;;;;5024692;28;20424;-72
2022/10/26 01:25:58;;;;;;;16.40;5.30;;;19.90;99.90;;;;;;5030268;28;20409;-73
2022/10/26 01:28:36;;;;;;;15.13;5.57;;;19.90;99.90;;;;;;5027249;28;20500;-73
2022/10/26 01:31:05;;;;;;;15.30;5.22;;;19.90;99.90;;;;;;5023594;28;20048;-73
2022/10/26 01:33:55;;;;;;;16.08;5.25;;;19.90;99.90;;;;;;5015765;28;20817;-73
2022/10/26 01:36:30;;;;;;;15.80;5.43;;;19.80;99.90;;;;;;5020640;28;20038;-72
2022/10/26 01:39:39;;;;;;;15.05;5.30;;;19.90;99.90;;;;;;5021013;28;20096;-73
2022/10/26 01:42:09;;;;;;;19.55;5.88;;;19.90;99.90;;;;;;4985998;28;20052;-73
2022/10/26 01:44:43;;;;;;;18.58;5.97;;;19.90;99.90;;;;;;5031179;28;20029;-73
2022/10/26 01:47:15;;;;;;;19.00;6.18;;;19.90;99.90;;;;;;5013069;28;20091;-73
2022/10/26 01:49:45;;;;;;;20.63;6.90;;;19.90;99.90;;;;;;5038396;28;20065;-72
2022/10/26 01:52:11;;;;;;;17.13;6.53;;;20.00;99.90;;;;;;5033845;28;20071;-72
2022/10/26 01:54:37;;;;;;;18.95;7.00;;;20.00;99.90;;;;;;5027459;28;20502;-72
2022/10/26 01:57:08;;;;;;;24.75;6.10;;;20.00;99.90;;;;;;5036759;28;20481;-73
2022/10/26 02:00:09;;;;;;;23.13;6.40;;;19.90;99.90;;;;;;5040430;28;20033;-73
2022/10/26 02:02:54;;;;;;;20.13;6.45;;;19.90;99.90;;;;;;5020757;28;20076;-72
2022/10/26 02:05:32;;;;;;;17.05;5.63;;;19.90;99.90;;;;;;5040432;28;20212;-73
2022/10/26 02:08:13;;;;;;;18.73;6.20;;;19.90;99.90;;;;;;5035991;28;20131;-73
2022/10/26 02:11:20;;;;;;;15.82;6.68;;;20.00;99.90;;;;;;5019981;28;20097;-73
2022/10/26 02:14:00;;;;;;;16.13;6.32;;;20.00;99.90;;;;;;5019200;28;20038;-73
2022/10/26 02:16:32;;;;;;;18.20;6.30;;;20.00;99.90;;;;;;5014724;28;20108;-74
2022/10/26 02:19:08;;;;;;;22.80;7.85;;;19.90;99.90;;;;;;5008798;28;20385;-73
2022/10/26 02:21:43;;;;;;;20.35;7.32;;;20.00;99.90;;;;;;5022148;28;20045;-73
2022/10/26 02:24:12;;;;;;;19.58;5.80;;;19.90;99.90;;;;;;5019810;28;20044;-73
2022/10/26 02:26:41;;;;;;;16.65;6.30;;;19.90;99.90;;;;;;5019680;28;20439;-73
2022/10/26 02:29:10;;;;;;;13.52;5.57;;;19.90;99.90;;;;;;5030683;28;20041;-73
2022/10/26 02:31:37;;;;;;;19.25;6.85;;;19.90;99.90;;;;;;5025588;28;20045;-73
2022/10/26 02:34:08;;;;;;;16.48;6.15;;;19.90;99.90;;;;;;5027320;28;20026;-72
2022/10/26 02:36:38;;;;;;;19.73;5.97;;;19.80;99.90;;;;;;5029007;28;20088;-72
2022/10/26 02:39:05;;;;;;;16.27;5.88;;;19.80;99.90;;;;;;5036641;28;20045;-73
2022/10/26 02:41:32;;;;;;;15.85;5.57;;;19.80;99.90;;;;;;5025520;28;20413;-73
2022/10/26 02:44:13;;;;;;;18.23;5.53;;;19.80;99.90;;;;;;5026079;28;20040;-73
2022/10/26 02:46:40;;;;;;;19.40;7.45;;;19.70;99.90;;;;;;5041842;28;20041;-73
2022/10/26 02:49:06;;;;;;;25.40;7.47;;;19.70;99.90;;;;;;5022765;28;20111;-73
2022/10/26 02:51:38;;;;;;;17.75;6.53;;;19.70;99.90;;;;;;5022187;28;21074;-73
2022/10/26 02:54:28;;;;;;;17.77;7.00;;;19.80;99.90;;;;;;5023478;28;20088;-73
2022/10/26 02:57:12;;;;;;;19.00;7.55;;;19.70;99.90;;;;;;5028486;28;20091;-74
2022/10/26 02:59:41;;;;;;;18.75;7.50;;;19.70;99.90;;;;;;5046593;28;20661;-72
2022/10/26 03:02:08;;;;;;;19.77;6.70;;;19.70;99.90;;;;;;5046977;28;20539;-74
2022/10/26 03:04:34;;;;;;;16.42;7.70;;;19.70;99.90;;;;;;5025458;28;20393;-72
2022/10/26 03:07:01;;;;;;;20.33;7.15;;;19.70;99.90;;;;;;5026440;28;20034;-73
2022/10/26 03:09:27;;;;;;;25.30;8.02;;;19.60;99.90;;;;;;5024142;28;20492;-73
2022/10/26 03:11:55;;;;;;;18.90;7.90;;;19.60;99.90;;;;;;5039912;28;20033;-73
2022/10/26 03:14:21;;;;;;;18.88;8.13;;;19.60;99.90;;;;;;5029230;28;20040;-72
2022/10/26 03:16:47;;;;;;;23.48;7.95;;;19.70;99.90;;;;;;5021952;28;20032;-73
2022/10/26 03:19:13;;;;;;;19.35;8.00;;;19.70;99.90;;;;;;5024967;28;20048;-73
2022/10/26 03:21:41;;;;;;;23.23;8.00;;;19.60;99.90;;;;;;5043411;28;20045;-73
2022/10/26 03:24:08;;;;;;;21.52;7.97;;;19.60;99.90;;;;;;5030570;28;20389;-73
2022/10/26 03:26:34;;;;;;;22.90;9.05;;;19.60;99.90;;;;;;5042491;28;20485;-73
2022/10/26 03:29:00;;;;;;;19.38;8.27;;;19.60;99.90;;;;;;5042192;28;20029;-72
2022/10/26 03:31:26;;;;;;;21.17;8.65;;;19.70;99.90;;;;;;5025286;28;20460;-73
2022/10/26 03:33:51;;;;;;;26.20;8.50;;;19.60;99.90;;;;;;5041580;28;20890;-73
2022/10/26 03:36:17;;;;;;;21.85;7.85;;;19.60;99.90;;;;;;5043343;28;20044;-72
2022/10/26 03:38:43;;;;;;;25.58;8.50;;;19.60;99.90;;;;;;5025599;28;20041;-72
2022/10/26 03:41:09;;;;;;;24.40;9.27;;;19.60;99.90;;;;;;5020530;28;20460;-73
2022/10/26 03:43:35;;;;;;;22.30;8.70;;;19.60;99.90;;;;;;5018725;28;20042;-73
2022/10/26 03:46:00;;;;;;;22.50;9.18;;;19.60;99.90;;;;;;5025379;28;20040;-73
2022/10/26 03:48:26;;;;;;;22.40;9.55;;;19.60;99.90;;;;;;5029606;28;20061;-72
2022/10/26 03:50:57;;;;;;;25.80;9.88;;;19.70;99.90;;;;;;5042987;28;20045;-73
2022/10/26 03:53:22;;;;;;;21.98;10.38;;;19.70;99.90;;;;;;5030851;28;20050;-73
2022/10/26 03:55:48;;;;;;;28.15;10.43;;;19.70;99.90;;;;;;5032432;28;20103;-72
2022/10/26 03:58:14;;;;;;;28.00;11.30;;;19.70;99.90;;;;;;5029396;28;20063;-72
2022/10/26 04:00:40;;;;;;;26.70;9.73;;;19.70;99.90;;;;;;5027471;28;20030;-73
2022/10/26 04:03:06;;;;;;;25.23;9.63;;;19.60;99.90;;;;;;5020837;28;20038;-74
2022/10/26 04:05:32;;;;;;;21.92;8.15;;;19.60;99.90;;;;;;5044161;28;20039;-72
2022/10/26 04:07:59;;;;;;;24.35;8.38;;;19.60;99.90;;;;;;5037390;28;20033;-73
2022/10/26 04:10:26;;;;;;;28.02;9.18;;;19.50;99.90;;;;;;5037700;28;20037;-73
2022/10/26 04:12:53;;;;;;;25.70;8.80;;;19.60;99.90;;;;;;5028644;28;20036;-74
2022/10/26 04:15:20;;;;;;;18.02;7.97;;;19.50;99.90;;;;;;5035608;28;20037;-73
2022/10/26 04:17:46;;;;;;;24.10;8.77;;;19.50;99.90;;;;;;5035130;28;20091;-73
2022/10/26 04:20:12;;;;;;;20.63;9.10;;;19.50;99.90;;;;;;4998823;28;20040;-73
2022/10/26 04:22:38;;;;;;;20.75;8.30;;;19.50;99.90;;;;;;5041660;28;20033;-73
2022/10/26 04:25:05;;;;;;;20.95;8.82;;;19.40;99.90;;;;;;5016859;28;20041;-73
2022/10/26 04:27:30;;;;;;;24.33;9.50;;;19.40;99.90;;;;;;5037924;28;20061;-73
2022/10/26 04:29:56;;;;;;;21.60;8.63;;;19.40;99.90;;;;;;5026876;28;20140;-73
2022/10/26 04:32:22;;;;;;;23.63;8.23;;;19.40;99.90;;;;;;5023443;28;20508;-73
2022/10/26 04:34:48;;;;;;;20.60;9.07;;;19.40;99.90;;;;;;5025399;28;20037;-73
2022/10/26 04:37:14;;;;;;;21.92;8.70;;;19.40;99.90;;;;;;5022494;28;20124;-73
2022/10/26 04:39:39;;;;;;;17.33;8.13;;;19.40;99.90;;;;;;5023609;28;20084;-73
2022/10/26 04:42:05;;;;;;;21.83;8.68;;;19.40;99.90;;;;;;5029810;28;20060;-74
2022/10/26 04:44:31;;;;;;;21.65;8.40;;;19.50;99.90;;;;;;5019833;28;20077;-73
2022/10/26 04:46:57;;;;;;;17.95;7.78;;;19.50;99.90;;;;;;5042553;28;20038;-72
2022/10/26 04:49:23;;;;;;;19.02;6.78;;;19.40;99.90;;;;;;5015355;28;20054;-73
2022/10/26 04:51:49;;;;;;;14.85;6.72;;;19.40;99.90;;;;;;5037259;28;20095;-72
2022/10/26 04:54:16;;;;;;;15.30;6.97;;;19.40;99.90;;;;;;5039963;28;20046;-72
2022/10/26 04:56:42;;;;;;;15.63;6.45;;;19.30;99.90;;;;;;5023959;28;20398;-73
2022/10/26 04:59:08;;;;;;;22.95;7.10;;;19.30;99.90;;;;;;5024812;28;20038;-72
2022/10/26 05:01:33;;;;;;;20.77;6.88;;;19.50;99.90;;;;;;5017260;28;20096;-72
2022/10/26 05:03:59;;;;;;;25.50;10.73;;;19.50;99.90;;;;;;5023181;28;20033;-74
2022/10/26 05:06:25;;;;;;;20.95;7.97;;;19.60;99.90;;;;;;5039603;28;20037;-73
2022/10/26 05:08:51;;;;;;;21.10;7.53;;;19.50;99.90;;;;;;5029744;28;20124;-72
2022/10/26 05:11:17;;;;;;;15.27;6.60;;;19.50;99.90;;;;;;5023458;28;20042;-72
2022/10/26 05:13:45;;;;;;;21.08;6.93;;;19.50;99.90;;;;;;5024987;28;20034;-73
2022/10/26 05:16:11;;;;;;;22.08;6.80;;;19.50;99.90;;;;;;5022527;28;20485;-73
2022/10/26 05:18:37;;;;;;;15.40;6.07;;;19.40;99.90;;;;;;5045167;28;20120;-71
2022/10/26 05:21:05;;;;;;;23.13;6.95;;;19.50;99.90;;;;;;5027025;28;20033;-73
2022/10/26 05:23:31;;;;;;;19.65;7.28;;;19.40;99.90;;;;;;5025560;28;20056;-74
2022/10/26 05:25:56;;;;;;;19.35;7.63;;;19.40;99.90;;;;;;5022139;28;20485;-73
2022/10/26 05:28:22;;;;;;;18.00;6.93;;;19.40;99.90;;;;;;5021572;28;20049;-73
2022/10/26 05:30:48;;;;;;;15.20;5.68;;;19.50;99.90;;;;;;5041207;28;20466;-74
2022/10/26 05:33:14;;;;;;;14.95;5.43;;;19.50;99.90;;;;;;5032929;28;20045;-73
2022/10/26 05:35:41;;;;;;;20.35;5.85;;;19.50;99.90;;;;;;5026530;28;20037;-73
2022/10/26 05:38:14;;;;;;;17.60;5.75;;;19.50;99.90;;;;;;5025884;28;20057;-73
2022/10/26 05:40:52;;;;;;;;;;;19.50;99.90;;;;;;5025383;28;20424;-72
2022/10/26 05:43:20;;;;;;;15.65;5.40;;;19.60;99.90;;;;;;5025761;28;19955;-73
2022/10/26 05:45:46;;;;;;;17.67;5.63;;;19.60;99.90;;;;;;5022537;28;20033;-73
2022/10/26 05:48:11;;;;;;;13.90;5.35;;;19.60;99.90;;;;;;5042104;28;20152;-73
2022/10/26 05:50:38;;;;;;;15.10;5.80;;;19.50;99.90;;;;;;5025694;28;20038;-73
2022/10/26 05:53:05;;;;;;;17.80;5.65;;;19.40;99.90;;;;;;5024849;28;20104;-73
2022/10/26 05:55:31;;;;;;;16.80;5.25;;;19.40;99.90;;;;;;5016510;28;20041;-74
2022/10/26 05:57:57;;;;;;;19.63;5.97;;;19.50;99.90;;;;;;5040799;28;20033;-72
2022/10/26 06:00:25;;;;;;;15.40;5.78;;;19.50;99.90;;;;;;5037303;28;20521;-74
2022/10/26 06:03:24;;;;;;;17.23;6.15;;;19.40;99.90;;;;;;5026525;28;20025;-73
2022/10/26 06:05:58;;;;;;;20.77;5.70;;;19.50;99.90;;;;;;5028925;28;20036;-73
2022/10/26 06:08:27;;;;;;;15.93;5.50;;;19.50;99.90;;;;;;5034726;28;20030;-74
2022/10/26 06:10:58;;;;;;;21.23;6.30;;;19.50;99.90;;;;;;5043199;28;20021;-73
2022/10/26 06:13:24;;;;;;;19.25;6.07;;;19.50;99.90;;;;;;5029003;28;20030;-73
2022/10/26 06:16:20;;;;;;;17.45;6.57;;;19.50;99.90;;;;;;5024028;28;20038;-73
2022/10/26 06:19:00;;;;;;;22.00;6.15;;;19.50;99.90;;;;;;5030447;28;20545;-73
2022/10/26 06:21:28;;;;;;;20.90;6.15;;;19.60;99.90;;;;;;5023300;28;20067;-72
2022/10/26 06:24:03;;;;;;;16.98;6.35;;;19.60;99.90;;;;;;5042036;28;20041;-73
2022/10/26 06:26:35;;;;;;;15.95;5.40;;;19.70;99.90;;;;;;5032697;28;20033;-74
2022/10/26 06:29:20;;;;;;;28.50;12.68;;;19.70;99.90;;;;;;5031490;28;20120;-72
2022/10/26 06:31:46;;;;;;;;;;;19.70;99.90;;;;;;5042586;28;20473;-74
2022/10/26 06:34:28;;;;;;;16.35;5.88;;;19.70;99.90;;;;;;5022479;28;19953;-72
2022/10/26 06:36:57;;;;;;;14.80;4.57;;;19.70;99.90;;;;;;5028748;28;20060;-73
2022/10/26 06:39:26;;;;;;;22.33;6.43;;;19.80;99.90;;;;;;5026740;28;20081;-73
2022/10/26 06:41:52;;;;;;;23.90;5.82;;;19.90;99.90;;;;;;5030108;28;20515;-72
2022/10/26 06:44:25;;;;;;;20.70;6.13;;;19.90;99.90;;;;;;5040545;28;20087;-72
2022/10/26 06:46:53;;;;;;;20.02;6.00;;;19.90;99.90;;;;;;5051728;28;20083;-72
2022/10/26 06:49:27;;;;;;;25.00;6.05;;;20.10;99.90;;;;;;5030455;28;20128;-73
2022/10/26 06:52:17;;;;;;;25.40;6.10;;;20.10;99.90;;;;;;5028077;28;20488;-72
2022/10/26 06:54:52;;;;;;;22.83;6.32;;;20.20;99.90;;;;;;5026990;28;20456;-73
2022/10/26 06:57:19;;;;;;;18.98;5.72;;;20.20;99.90;;;;;;5006121;28;20492;-73
2022/10/26 06:59:50;;;;;;;30.38;5.97;;;20.20;99.90;;;;;;5028750;28;20036;-73
2022/10/26 07:02:16;;;;;;;24.77;6.05;;;20.20;99.90;;;;;;5043182;28;20060;-73
2022/10/26 07:04:43;;;;;;;21.30;5.97;;;20.20;99.90;;;;;;5047621;28;20376;-73
2022/10/26 07:07:18;;;;;;;20.98;6.88;;;20.20;99.90;;;;;;5024642;28;20100;-73
2022/10/26 07:09:44;;;;;;;24.33;6.43;;;20.30;99.90;;;;;;5032053;28;20033;-73
2022/10/26 07:12:10;;;;;;;27.48;6.32;;;20.30;99.90;;;;;;5020505;28;20041;-74
2022/10/26 07:14:35;;;;;;;25.15;8.02;;;20.30;99.90;;;;;;5017951;28;20047;-73
2022/10/26 07:17:01;;;;;;;27.27;7.28;;;20.40;99.90;;;;;;5037368;28;20040;-72
2022/10/26 07:19:27;;;;;;;21.10;6.55;;;20.50;99.90;;;;;;5027516;28;20064;-73
2022/10/26 07:22:03;;;;;;;26.88;6.85;;;20.50;99.90;;;;;;5026826;28;20105;-73
2022/10/26 07:24:30;;;;;;;24.67;7.82;;;20.50;99.90;;;;;;5031710;28;20037;-72
2022/10/26 07:26:57;;;;;;;22.20;7.00;;;20.60;99.90;;;;;;5041482;28;20049;-73
2022/10/26 07:29:24;;;;;;;23.60;7.07;;;20.70;99.90;;;;;;5024079;28;20053;-73
2022/10/26 07:31:52;;;;;;;26.08;7.57;;;20.70;99.90;;;;;;5025691;28;20144;-73
2022/10/26 07:34:18;;;;;;;20.15;6.95;;;20.80;99.90;;;;;;5045070;28;20033;-73
2022/10/26 07:36:47;;;;;;;19.73;7.90;;;20.80;99.90;;;;;;5044132;28;20033;-72
2022/10/26 07:39:13;;;;;;;26.42;7.45;;;21.00;99.90;;;;;;5026531;28;20128;-73
2022/10/26 07:41:39;;;;;;;31.55;8.70;;;21.00;99.90;;;;;;5028219;28;20548;-73
2022/10/26 07:44:05;;;;;;;26.67;8.95;;;21.10;99.90;;;;;;5024392;28;20034;-74
2022/10/26 07:46:31;;;;;;;30.02;8.73;;;21.20;99.90;;;;;;5029530;28;20394;-74
2022/10/26 07:48:56;;;;;;;28.65;9.95;;;21.30;99.90;;;;;;5023921;28;20040;-73
2022/10/26 07:51:22;;;;;;;27.80;9.73;;;21.50;99.90;;;;;;5024253;28;20056;-72
2022/10/26 07:53:48;;;;;;;28.80;10.77;;;21.60;99.90;;;;;;5024519;28;20627;-73
2022/10/26 07:56:14;;;;;;;23.63;9.07;;;21.80;99.90;;;;;;5021349;28;20136;-73
2022/10/26 07:58:40;;;;;;;24.58;9.45;;;21.90;99.90;;;;;;5047492;28;20120;-73
2022/10/26 08:01:09;;;;;;;25.42;10.05;;;22.00;99.90;;;;;;5042983;28;20552;-73
2022/10/26 08:03:35;;;;;;;26.48;10.02;;;22.10;99.90;;;;;;5031507;28;20079;-72
2022/10/26 08:06:03;;;;;;;26.75;10.57;;;22.30;99.90;;;;;;5029303;28;20042;-73
2022/10/26 08:08:29;;;;;;;23.63;10.20;;;22.60;99.90;;;;;;5025673;28;20049;-73
2022/10/26 08:10:54;;;;;;;21.95;9.50;;;23.50;99.90;;;;;;5030887;28;20037;-73
2022/10/26 08:13:20;;;;;;;23.10;9.15;;;23.90;99.90;;;;;;5027188;28;20030;-72
2022/10/26 08:15:46;;;;;;;27.65;10.85;;;24.40;99.90;;;;;;5042996;28;20033;-73
2022/10/26 08:18:12;;;;;;;34.40;11.40;;;24.70;99.90;;;;;;5038923;28;20038;-73
2022/10/26 08:20:38;;;;;;;26.00;11.00;;;24.70;99.90;;;;;;5033209;28;20439;-73
2022/10/26 08:23:07;;;;;;;32.92;11.45;;;24.40;99.90;;;;;;5028648;28;20030;-73
2022/10/26 08:25:33;;;;;;;30.55;11.80;;;24.00;99.90;;;;;;5045752;28;20060;-73
2022/10/26 08:28:03;;;;;;;26.63;10.48;;;23.80;99.90;;;;;;5028707;28;20045;-73
2022/10/26 08:30:31;;;;;;;33.63;11.48;;;23.80;99.90;;;;;;5028494;28;20068;-74
2022/10/26 08:33:02;;;;;;;32.28;12.27;;;23.80;99.90;;;;;;5023410;28;20034;-73
2022/10/26 08:35:29;;;;;;;26.63;12.27;;;23.60;99.90;;;;;;5016716;28;20037;-73
2022/10/26 08:37:55;;;;;;;32.78;11.95;;;23.50;99.90;;;;;;5030026;28;20042;-73
2022/10/26 08:40:32;;;;;;;33.50;11.32;;;23.50;99.90;;;;;;5026920;28;20094;-73
2022/10/26 08:43:21;;;;;;;33.53;12.60;;;23.50;99.90;;;;;;5024872;28;20121;-73
2022/10/26 08:45:58;;;;;;;30.80;12.38;;;23.60;99.90;;;;;;5033002;28;20588;-73
2022/10/26 08:48:31;;;;;;;30.33;12.57;;;23.70;99.90;;;;;;5018022;28;20040;-73
2022/10/26 08:51:20;;;;;;;36.55;11.85;;;23.50;99.90;;;;;;5010869;28;20034;-73
2022/10/26 08:54:00;;;;;;;29.58;12.07;;;23.50;99.90;;;;;;5028185;28;20033;-74
2022/10/26 08:56:33;;;;;;;30.38;11.55;;;23.70;99.90;;;;;;5018657;28;20033;-74
2022/10/26 08:59:25;;;;;;;34.25;12.48;;;24.00;99.90;;;;;;5020142;28;20033;-73
2022/10/26 09:01:51;;;;;;;46.92;25.30;;;24.10;99.90;;;;;;5022837;28;20062;-73
2022/10/26 09:04:25;;;;;;;31.23;16.08;;;24.20;99.90;;;;;;5015616;28;20534;-73
2022/10/26 09:07:12;;;;;;;31.50;14.05;;;24.40;99.90;;;;;;5018687;28;20133;-74
2022/10/26 09:10:24;;;;;;;26.10;11.90;;;24.50;99.90;;;;;;5014961;28;20049;-74
2022/10/26 09:12:57;;;;;;;28.23;12.98;;;24.70;99.90;;;;;;5032517;28;20074;-74
2022/10/26 09:15:48;;;;;;;32.58;12.30;;;24.90;99.90;;;;;;5033809;28;20546;-73
2022/10/26 09:18:23;;;;;;;;;;;25.00;99.90;;;;;;5026888;28;20158;-73
2022/10/26 09:21:28;;;;;;;31.52;13.90;;;25.10;99.90;;;;;;5022695;28;19925;-74
2022/10/26 09:24:35;;;;;;;34.42;14.43;;;25.10;99.90;;;;;;5022521;28;20029;-72
2022/10/26 09:27:17;;;;;;;30.60;13.85;;;24.70;99.90;;;;;;5015671;28;20046;-73
2022/10/26 09:29:43;;;;;;;34.13;14.30;;;24.60;99.90;;;;;;5018248;28;20053;-73
2022/10/26 09:32:38;;;;;;;38.90;14.52;;;24.40;99.90;;;;;;5020633;28;20034;-72
2022/10/26 09:35:22;;;;;;;41.45;14.57;;;24.30;99.90;;;;;;5003559;28;20103;-73
2022/10/26 09:37:53;;;;;;;35.10;14.52;;;24.60;99.90;;;;;;5020703;28;20446;-74
2022/10/26 09:40:29;;;;;;;38.47;14.65;;;24.70;99.90;;;;;;5020016;28;20033;-73
2022/10/26 09:43:36;;;;;;;44.40;16.08;;;24.70;99.90;;;;;;5037078;28;20033;-73
2022/10/26 09:46:02;;;;;;;39.22;16.05;;;24.90;99.90;;;;;;5019923;28;20040;-73
2022/10/26 09:49:12;;;;;;;43.45;15.60;;;24.90;99.90;;;;;;5017412;28;20145;-72
2022/10/26 09:51:41;;;;;;;33.92;14.02;;;25.00;99.90;;;;;;4998866;28;20223;-74
2022/10/26 09:54:15;;;;;;;35.38;14.65;;;25.40;99.90;;;;;;4983309;28;20164;-73
2022/10/26 09:56:51;;;;;;;35.40;14.65;;;25.70;99.90;;;;;;5001398;28;20053;-73
2022/10/26 09:59:21;;;;;;;38.78;14.25;;;26.10;99.90;;;;;;5025159;28;20052;-73
2022/10/26 10:01:47;;;;;;;33.60;13.20;;;26.30;99.90;;;;;;5016890;28;20041;-73
2022/10/26 10:04:18;;;;;;;34.42;12.98;;;26.70;99.90;;;;;;5015584;28;20071;-74
2022/10/26 10:07:12;;;;;;;27.30;11.30;;;27.20;99.90;;;;;;5017258;28;20068;-73
2022/10/26 10:09:38;;;;;;;29.35;11.20;;;27.50;99.90;;;;;;5028806;28;20097;-73
2022/10/26 10:12:05;;;;;;;27.88;10.77;;;27.70;99.90;;;;;;5019449;28;20030;-73
2022/10/26 10:14:38;;;;;;;33.47;15.35;;;28.00;99.90;;;;;;5022901;28;20049;-74
2022/10/26 10:17:18;;;;;;;31.27;11.02;;;28.30;99.90;;;;;;5018045;28;20036;-73
2022/10/26 10:19:44;;;;;;;33.03;10.27;;;28.50;99.90;;;;;;5020017;28;20668;-73
2022/10/26 10:22:10;;;;;;;;;;;28.50;99.90;;;;;;5016574;28;20069;-73
2022/10/26 10:24:38;;;;;;;33.80;10.15;;;28.70;99.90;;;;;;5020106;28;19951;-74
2022/10/26 10:27:16;;;;;;;28.90;9.48;;;28.80;99.90;;;;;;5017491;28;20058;-74
2022/10/26 10:29:48;;;;;;;26.95;9.35;;;29.10;99.90;;;;;;5027450;28;20045;-73
2022/10/26 10:32:17;;;;;;;;;;;29.30;99.90;;;;;;5013829;28;20041;-73
2022/10/26 10:34:43;;;;;;;29.60;11.38;;;29.60;99.90;;;;;;5046153;28;19917;-73
2022/10/26 10:37:33;;;;;;;27.40;9.75;;;29.70;99.90;;;;;;5022767;28;20060;-72
2022/10/26 10:40:03;;;;;;;24.65;8.98;;;29.80;99.90;;;;;;5010933;28;20041;-73
2022/10/26 10:42:34;;;;;;;25.00;9.55;;;29.90;99.90;;;;;;5015126;28;20120;-73
2022/10/26 10:45:01;;;;;;;21.05;8.48;;;30.00;99.90;;;;;;5033940;28;20066;-73
2022/10/26 10:47:30;;;;;;;28.75;10.15;;;30.50;99.60;;;;;;5014187;28;20111;-74
2022/10/26 10:50:16;;;;;;;26.23;9.43;;;30.70;99.20;;;;;;5014842;28;20531;-74
2022/10/26 10:52:42;;;;;;;27.25;9.25;;;30.70;98.80;;;;;;5018918;28;20038;-74
2022/10/26 10:55:14;;;;;;;25.77;8.82;;;31.00;98.30;;;;;;5030070;28;20470;-74
2022/10/26 10:58:05;;;;;;;27.15;9.07;;;30.60;98.50;;;;;;5033637;28;20436;-75
2022/10/26 11:00:36;;;;;;;23.23;7.32;;;30.10;97.90;;;;;;5012633;28;20109;-74
2022/10/26 11:03:05;;;;;;;19.98;5.78;;;30.10;98.70;;;;;;5035174;28;20137;-74
2022/10/26 11:05:58;;;;;;;21.25;7.28;;;29.40;97.90;;;;;;5016698;28;20183;-73
2022/10/26 11:08:43;;;;;;;23.48;8.15;;;29.40;98.30;;;;;;5019099;28;20045;-74
2022/10/26 11:11:15;;;;;;;20.35;7.07;;;29.10;98.70;;;;;;5021600;28;20029;-73
2022/10/26 11:14:11;;;;;;;21.40;7.10;;;29.70;98.10;;;;;;5024263;28;20033;-73
2022/10/26 11:16:48;;;;;;;23.08;8.95;;;30.00;98.40;;;;;;5027970;28;20578;-74
2022/10/26 11:19:36;;;;;;;26.60;8.70;;;30.30;98.00;;;;;;5013656;28;20052;-74
2022/10/26 11:22:08;;;;;;;26.88;9.05;;;29.90;98.10;;;;;;5024872;28;20036;-73
2022/10/26 11:24:43;;;;;;;23.35;9.77;;;30.20;98.40;;;;;;5024846;28;20037;-73
2022/10/26 11:27:15;;;;;;;29.45;11.27;;;30.60;98.20;;;;;;5016413;28;20112;-73
2022/10/26 11:29:47;;;;;;;24.92;9.93;;;30.60;97.60;;;;;;5038117;28;20037;-73
2022/10/26 11:32:23;;;;;;;25.67;11.07;;;31.00;97.50;;;;;;5032304;28;20127;-75
2022/10/26 11:34:59;;;;;;;28.65;10.55;;;31.20;97.60;;;;;;5008500;28;20072;-76
2022/10/26 11:37:48;;;;;;;26.08;10.43;;;31.00;97.20;;;;;;5017952;28;21056;-75
2022/10/26 11:40:26;;;;;;;20.98;8.88;;;31.20;97.00;;;;;;5033990;28;20553;-75
2022/10/26 11:43:05;;;;;;;31.42;13.05;;;31.80;96.70;;;;;;5041955;28;20775;-75
2022/10/26 11:45:38;;;;;;;26.65;10.25;;;31.80;96.50;;;;;;5019066;28;20038;-75
2022/10/26 11:48:33;;;;;;;26.42;10.65;;;32.40;96.40;;;;;;5019485;28;20057;-75
2022/10/26 11:50:59;;;;;;;29.42;11.23;;;32.60;95.90;;;;;;5017789;28;20045;-75
2022/10/26 11:53:30;;;;;;;27.48;11.15;;;33.00;95.80;;;;;;5032945;28;20512;-77
2022/10/26 11:55:58;;;;;;;29.67;10.57;;;33.30;95.50;;;;;;5024536;28;20116;-76
2022/10/26 11:58:29;;;;;;;33.10;11.88;;;33.50;95.30;;;;;;5021119;28;20050;-76
2022/10/26 12:01:09;;;;;;;27.92;10.20;;;34.00;95.10;;;;;;5040969;28;20545;-77
2022/10/26 12:03:44;;;;;;;26.63;10.95;;;34.00;95.00;;;;;;5023242;28;20228;-77
2022/10/26 12:06:13;;;;;;;30.25;10.55;;;33.50;95.20;;;;;;5017620;28;20045;-76
2022/10/26 12:08:49;;;;;;;37.13;12.85;;;32.90;96.00;;;;;;5032598;28;20472;-76
2022/10/26 12:11:44;;;;;;;25.00;10.55;;;33.00;96.50;;;;;;5043211;28;20545;-76
2022/10/26 12:14:31;;;;;;;28.80;9.90;;;32.10;97.50;;;;;;5025789;28;20044;-75
2022/10/26 12:17:16;;;;;;;39.80;13.35;;;32.60;97.10;;;;;;5023961;28;20497;-76
2022/10/26 12:19:59;;;;;;;26.65;11.80;;;32.50;97.30;;;;;;5024071;28;20050;-77
2022/10/26 12:22:35;;;;;;;42.13;24.45;;;32.50;97.50;;;;;;5039887;28;20045;-77
2022/10/26 12:25:13;;;;;;;32.22;12.40;;;32.90;97.50;;;;;;5027600;28;20062;-76
2022/10/26 12:27:40;;;;;;;26.10;10.48;;;32.70;97.50;;;;;;5024742;28;20087;-76
2022/10/26 12:30:27;;;;;;;24.65;10.43;;;32.90;97.70;;;;;;5022153;28;20517;-79
2022/10/26 12:32:59;;;;;;;23.02;10.77;;;32.80;97.80;;;;;;5039699;28;20094;-76
2022/10/26 12:35:40;;;;;;;22.83;9.02;;;32.50;98.50;;;;;;5028814;28;20034;-76
2022/10/26 12:38:23;;;;;;;25.80;10.38;;;33.00;98.50;;;;;;5027870;28;20637;-76
2022/10/26 12:41:14;;;;;;;21.95;9.70;;;32.90;98.50;;;;;;5037918;28;20144;-76
2022/10/26 12:43:40;;;;;;;24.35;10.10;;;32.00;99.90;;;;;;5023028;28;20503;-77
2022/10/26 12:46:12;;;;;;;22.67;8.13;;;32.60;99.50;;;;;;5024529;28;20059;-77
2022/10/26 12:48:44;;;;;;;21.83;8.07;;;32.30;99.90;;;;;;5028383;28;20034;-77
2022/10/26 12:51:24;;;;;;;24.83;9.65;;;33.40;99.20;;;;;;5045798;28;20125;-76
2022/10/26 12:54:09;;;;;;;24.30;9.00;;;33.30;99.40;;;;;;5044039;28;20033;-76
2022/10/26 12:56:56;;;;;;;21.52;8.55;;;34.00;99.20;;;;;;5041414;28;20516;-76
2022/10/26 13:00:14;;;;;;;24.45;9.15;;;34.30;98.80;;;;;;5044089;28;20174;-76
2022/10/26 13:02:43;;;;;;;23.77;10.15;;;34.80;98.70;;;;;;5016796;28;20025;-76